METAR Data
IDs: Format: Raw Decoded Include TAF

Data at: 2123 UTC 01 Dec 2021

EKAH 012050Z AUTO 01019G31KT 0900 R10R/P1500N R28L/P1500N -SN OVC005/// M01/M01 Q0979